sensor_id;sensor_type;location;lat;lon;timestamp;pressure;altitude;pressure_sealevel;temperature;humidity
7075;BME280;3578;51.568;6.932;2022-10-18T00:01:27;54252.25;;;-144.14;100.00
7075;BME280;3578;51.568;6.932;2022-10-18T00:03:54;54250.25;;;-144.14;100.00
7075;BME280;3578;51.568;6.932;2022-10-18T00:06:22;54274.31;;;-144.14;100.00
7075;BME280;3578;51.568;6.932;2022-10-18T00:08:49;54242.25;;;-144.14;100.00
7075;BME280;3578;51.568;6.932;2022-10-18T00:11:16;54240.25;;;-144.14;100.00
7075;BME280;3578;51.568;6.932;2022-10-18T00:13:43;54238.22;;;-144.14;100.00
7075;BME280;3578;51.568;6.932;2022-10-18T00:16:12;54254.28;;;-144.14;100.00
7075;BME280;3578;51.568;6.932;2022-10-18T00:18:40;54262.28;;;-144.14;100.00
7075;BME280;3578;51.568;6.932;2022-10-18T00:21:11;54240.25;;;-144.14;100.00
7075;BME280;3578;51.568;6.932;2022-10-18T00:23:40;54258.28;;;-144.14;100.00
7075;BME280;3578;51.568;6.932;2022-10-18T00:26:09;54230.22;;;-144.14;100.00
7075;BME280;3578;51.568;6.932;2022-10-18T00:28:38;54256.28;;;-144.14;100.00
7075;BME280;3578;51.568;6.932;2022-10-18T00:31:11;54276.31;;;-144.14;100.00
7075;BME280;3578;51.568;6.932;2022-10-18T00:33:39;54290.34;;;-144.14;100.00
7075;BME280;3578;51.568;6.932;2022-10-18T00:36:06;54242.25;;;-144.14;100.00
7075;BME280;3578;51.568;6.932;2022-10-18T00:38:34;54230.22;;;-144.14;100.00
7075;BME280;3578;51.568;6.932;2022-10-18T00:41:05;54280.34;;;-144.14;100.00
7075;BME280;3578;51.568;6.932;2022-10-18T00:43:32;54264.28;;;-144.14;100.00
7075;BME280;3578;51.568;6.932;2022-10-18T00:45:59;54252.25;;;-144.14;100.00
7075;BME280;3578;51.568;6.932;2022-10-18T00:48:26;54238.22;;;-144.14;100.00
7075;BME280;3578;51.568;6.932;2022-10-18T00:50:53;54258.28;;;-144.14;100.00
7075;BME280;3578;51.568;6.932;2022-10-18T00:53:21;54238.22;;;-144.14;100.00
7075;BME280;3578;51.568;6.932;2022-10-18T00:55:49;54256.28;;;-144.14;100.00
7075;BME280;3578;51.568;6.932;2022-10-18T00:58:18;54234.22;;;-144.14;100.00
7075;BME280;3578;51.568;6.932;2022-10-18T01:00:45;54236.22;;;-144.14;100.00
7075;BME280;3578;51.568;6.932;2022-10-18T01:03:13;54208.16;;;-144.14;100.00
7075;BME280;3578;51.568;6.932;2022-10-18T01:05:43;54238.22;;;-144.14;100.00
7075;BME280;3578;51.568;6.932;2022-10-18T01:08:53;54272.31;;;-144.14;100.00
7075;BME280;3578;51.568;6.932;2022-10-18T01:11:44;54224.19;;;-144.14;100.00
7075;BME280;3578;51.568;6.932;2022-10-18T01:14:32;54280.34;;;-144.14;100.00
7075;BME280;3578;51.568;6.932;2022-10-18T01:17:07;54242.25;;;-144.14;100.00
7075;BME280;3578;51.568;6.932;2022-10-18T01:20:22;54238.22;;;-144.14;100.00
7075;BME280;3578;51.568;6.932;2022-10-18T01:22:57;54252.25;;;-144.14;100.00
7075;BME280;3578;51.568;6.932;2022-10-18T01:25:39;54248.25;;;-144.14;100.00
7075;BME280;3578;51.568;6.932;2022-10-18T01:28:26;54238.22;;;-144.14;100.00
7075;BME280;3578;51.568;6.932;2022-10-18T01:30:58;54224.19;;;-144.14;100.00
7075;BME280;3578;51.568;6.932;2022-10-18T01:33:32;54220.19;;;-144.14;100.00
7075;BME280;3578;51.568;6.932;2022-10-18T01:36:06;54198.13;;;-144.14;100.00
7075;BME280;3578;51.568;6.932;2022-10-18T01:38:37;54260.28;;;-144.14;100.00
7075;BME280;3578;51.568;6.932;2022-10-18T01:41:06;54232.22;;;-144.14;100.00
7075;BME280;3578;51.568;6.932;2022-10-18T01:43:36;54248.25;;;-144.14;100.00
7075;BME280;3578;51.568;6.932;2022-10-18T01:46:07;54200.16;;;-144.14;100.00
7075;BME280;3578;51.568;6.932;2022-10-18T01:48:35;54252.25;;;-144.14;100.00
7075;BME280;3578;51.568;6.932;2022-10-18T01:51:03;54216.19;;;-144.14;100.00
7075;BME280;3578;51.568;6.932;2022-10-18T01:53:32;54218.19;;;-144.14;100.00
7075;BME280;3578;51.568;6.932;2022-10-18T01:56:23;54192.13;;;-144.14;100.00
7075;BME280;3578;51.568;6.932;2022-10-18T01:59:04;54220.19;;;-144.14;100.00
7075;BME280;3578;51.568;6.932;2022-10-18T02:01:45;54218.19;;;-144.14;100.00
7075;BME280;3578;51.568;6.932;2022-10-18T02:04:25;54250.25;;;-144.14;100.00
7075;BME280;3578;51.568;6.932;2022-10-18T02:07:05;54208.16;;;-144.14;100.00
7075;BME280;3578;51.568;6.932;2022-10-18T02:09:39;54202.16;;;-144.14;100.00
7075;BME280;3578;51.568;6.932;2022-10-18T02:12:12;54206.16;;;-144.14;100.00
7075;BME280;3578;51.568;6.932;2022-10-18T02:14:42;54202.16;;;-144.14;100.00
7075;BME280;3578;51.568;6.932;2022-10-18T02:17:14;54176.09;;;-144.14;100.00
7075;BME280;3578;51.568;6.932;2022-10-18T02:19:45;54170.06;;;-144.14;100.00
7075;BME280;3578;51.568;6.932;2022-10-18T02:22:14;54172.09;;;-144.14;100.00
7075;BME280;3578;51.568;6.932;2022-10-18T02:24:46;54188.13;;;-144.14;100.00
7075;BME280;3578;51.568;6.932;2022-10-18T02:27:14;54184.09;;;-144.14;100.00
7075;BME280;3578;51.568;6.932;2022-10-18T02:29:42;54180.09;;;-144.14;100.00
7075;BME280;3578;51.568;6.932;2022-10-18T02:32:17;54206.16;;;-144.14;100.00
7075;BME280;3578;51.568;6.932;2022-10-18T02:34:51;54170.06;;;-144.14;100.00
7075;BME280;3578;51.568;6.932;2022-10-18T02:37:21;54188.13;;;-144.14;100.00
7075;BME280;3578;51.568;6.932;2022-10-18T02:39:50;54180.09;;;-144.14;100.00
7075;BME280;3578;51.568;6.932;2022-10-18T02:42:17;54188.13;;;-144.14;100.00
7075;BME280;3578;51.568;6.932;2022-10-18T02:44:44;54172.09;;;-144.14;100.00
7075;BME280;3578;51.568;6.932;2022-10-18T02:47:11;54206.16;;;-144.14;100.00
7075;BME280;3578;51.568;6.932;2022-10-18T02:49:40;54204.16;;;-144.14;100.00
7075;BME280;3578;51.568;6.932;2022-10-18T02:52:07;54184.09;;;-144.14;100.00
7075;BME280;3578;51.568;6.932;2022-10-18T02:54:34;54206.16;;;-144.14;100.00
7075;BME280;3578;51.568;6.932;2022-10-18T02:57:01;54234.22;;;-144.14;100.00
7075;BME280;3578;51.568;6.932;2022-10-18T02:59:28;54180.09;;;-144.14;100.00
7075;BME280;3578;51.568;6.932;2022-10-18T03:01:55;54186.13;;;-144.14;100.00
7075;BME280;3578;51.568;6.932;2022-10-18T03:04:22;54172.09;;;-144.14;100.00
7075;BME280;3578;51.568;6.932;2022-10-18T03:06:50;54194.13;;;-144.14;100.00
7075;BME280;3578;51.568;6.932;2022-10-18T03:09:17;54188.13;;;-144.14;100.00
7075;BME280;3578;51.568;6.932;2022-10-18T03:11:44;54196.13;;;-144.14;100.00
7075;BME280;3578;51.568;6.932;2022-10-18T03:14:11;54190.13;;;-144.14;100.00
7075;BME280;3578;51.568;6.932;2022-10-18T03:16:37;54160.06;;;-144.14;100.00
7075;BME280;3578;51.568;6.932;2022-10-18T03:19:04;54162.06;;;-144.14;100.00
7075;BME280;3578;51.568;6.932;2022-10-18T03:21:31;54164.06;;;-144.14;100.00
7075;BME280;3578;51.568;6.932;2022-10-18T03:24:01;54166.06;;;-144.14;100.00
7075;BME280;3578;51.568;6.932;2022-10-18T03:26:28;54156.03;;;-144.14;100.00
7075;BME280;3578;51.568;6.932;2022-10-18T03:28:55;54182.09;;;-144.14;100.00
7075;BME280;3578;51.568;6.932;2022-10-18T03:31:22;54172.09;;;-144.14;100.00
7075;BME280;3578;51.568;6.932;2022-10-18T03:33:49;54176.09;;;-144.14;100.00
7075;BME280;3578;51.568;6.932;2022-10-18T03:36:16;54178.09;;;-144.14;100.00
7075;BME280;3578;51.568;6.932;2022-10-18T03:38:43;54176.09;;;-144.14;100.00
7075;BME280;3578;51.568;6.932;2022-10-18T03:41:12;54184.09;;;-144.14;100.00
7075;BME280;3578;51.568;6.932;2022-10-18T03:43:38;54156.03;;;-144.14;100.00
7075;BME280;3578;51.568;6.932;2022-10-18T03:46:05;54140.00;;;-144.14;100.00
7075;BME280;3578;51.568;6.932;2022-10-18T03:48:32;54166.06;;;-144.14;100.00
7075;BME280;3578;51.568;6.932;2022-10-18T03:50:59;54132.00;;;-144.14;100.00
7075;BME280;3578;51.568;6.932;2022-10-18T03:53:26;54168.06;;;-144.14;100.00
7075;BME280;3578;51.568;6.932;2022-10-18T03:55:54;54144.00;;;-144.14;100.00
7075;BME280;3578;51.568;6.932;2022-10-18T03:58:23;54127.97;;;-144.14;100.00
7075;BME280;3578;51.568;6.932;2022-10-18T04:00:50;54121.97;;;-144.14;100.00
7075;BME280;3578;51.568;6.932;2022-10-18T04:03:18;54103.91;;;-144.14;100.00
7075;BME280;3578;51.568;6.932;2022-10-18T04:05:46;54142.00;;;-144.14;100.00
7075;BME280;3578;51.568;6.932;2022-10-18T04:08:15;54095.91;;;-144.14;100.00
7075;BME280;3578;51.568;6.932;2022-10-18T04:10:44;54140.00;;;-144.14;100.00
7075;BME280;3578;51.568;6.932;2022-10-18T04:13:11;54150.03;;;-144.14;100.00
7075;BME280;3578;51.568;6.932;2022-10-18T04:15:39;54127.97;;;-144.14;100.00
7075;BME280;3578;51.568;6.932;2022-10-18T04:18:06;54138.00;;;-144.14;100.00
7075;BME280;3578;51.568;6.932;2022-10-18T04:20:33;54129.97;;;-144.14;100.00
7075;BME280;3578;51.568;6.932;2022-10-18T04:23:00;54121.97;;;-144.14;100.00
7075;BME280;3578;51.568;6.932;2022-10-18T04:25:27;54140.00;;;-144.14;100.00
7075;BME280;3578;51.568;6.932;2022-10-18T04:27:54;54150.03;;;-144.14;100.00
7075;BME280;3578;51.568;6.932;2022-10-18T04:30:22;54160.06;;;-144.14;100.00
7075;BME280;3578;51.568;6.932;2022-10-18T04:32:50;54146.03;;;-144.14;100.00
7075;BME280;3578;51.568;6.932;2022-10-18T04:35:17;54160.06;;;-144.14;100.00
7075;BME280;3578;51.568;6.932;2022-10-18T04:37:47;54168.06;;;-144.14;100.00
7075;BME280;3578;51.568;6.932;2022-10-18T04:40:14;54146.03;;;-144.14;100.00
7075;BME280;3578;51.568;6.932;2022-10-18T04:42:41;54136.00;;;-144.14;100.00
7075;BME280;3578;51.568;6.932;2022-10-18T04:45:09;54119.97;;;-144.14;100.00
7075;BME280;3578;51.568;6.932;2022-10-18T04:47:36;54168.06;;;-144.14;100.00
7075;BME280;3578;51.568;6.932;2022-10-18T04:50:05;54176.09;;;-144.14;100.00
7075;BME280;3578;51.568;6.932;2022-10-18T04:52:33;54123.97;;;-144.14;100.00
7075;BME280;3578;51.568;6.932;2022-10-18T04:54:59;54172.09;;;-144.14;100.00
7075;BME280;3578;51.568;6.932;2022-10-18T04:57:26;54148.03;;;-144.14;100.00
7075;BME280;3578;51.568;6.932;2022-10-18T04:59:53;54134.00;;;-144.14;100.00
7075;BME280;3578;51.568;6.932;2022-10-18T05:02:20;54166.06;;;-144.14;100.00
7075;BME280;3578;51.568;6.932;2022-10-18T05:04:47;54150.03;;;-144.14;100.00
7075;BME280;3578;51.568;6.932;2022-10-18T05:07:15;54123.97;;;-144.14;100.00
7075;BME280;3578;51.568;6.932;2022-10-18T05:09:42;54144.00;;;-144.14;100.00
7075;BME280;3578;51.568;6.932;2022-10-18T05:12:09;54125.97;;;-144.14;100.00
7075;BME280;3578;51.568;6.932;2022-10-18T05:14:36;54146.03;;;-144.14;100.00
7075;BME280;3578;51.568;6.932;2022-10-18T05:17:03;54123.97;;;-144.14;100.00
7075;BME280;3578;51.568;6.932;2022-10-18T05:19:30;54127.97;;;-144.14;100.00
7075;BME280;3578;51.568;6.932;2022-10-18T05:21:57;54132.00;;;-144.14;100.00
7075;BME280;3578;51.568;6.932;2022-10-18T05:24:26;54156.03;;;-144.14;100.00
7075;BME280;3578;51.568;6.932;2022-10-18T05:26:52;54138.00;;;-144.14;100.00
7075;BME280;3578;51.568;6.932;2022-10-18T05:29:19;54152.03;;;-144.14;100.00
7075;BME280;3578;51.568;6.932;2022-10-18T05:31:47;54097.91;;;-144.14;100.00
7075;BME280;3578;51.568;6.932;2022-10-18T05:34:14;54125.97;;;-144.14;100.00
7075;BME280;3578;51.568;6.932;2022-10-18T05:36:41;54111.94;;;-144.14;100.00
7075;BME280;3578;51.568;6.932;2022-10-18T05:39:08;54119.97;;;-144.14;100.00
7075;BME280;3578;51.568;6.932;2022-10-18T05:41:37;54138.00;;;-144.14;100.00
7075;BME280;3578;51.568;6.932;2022-10-18T05:44:04;54089.88;;;-144.14;100.00
7075;BME280;3578;51.568;6.932;2022-10-18T05:46:32;54125.97;;;-144.14;100.00
7075;BME280;3578;51.568;6.932;2022-10-18T05:48:59;54099.91;;;-144.14;100.00
7075;BME280;3578;51.568;6.932;2022-10-18T05:51:26;54093.91;;;-144.14;100.00
7075;BME280;3578;51.568;6.932;2022-10-18T05:53:53;54093.91;;;-144.14;100.00
7075;BME280;3578;51.568;6.932;2022-10-18T05:56:20;54091.91;;;-144.14;100.00
7075;BME280;3578;51.568;6.932;2022-10-18T05:58:50;54111.94;;;-144.14;100.00
7075;BME280;3578;51.568;6.932;2022-10-18T06:01:18;54059.81;;;-144.14;100.00
7075;BME280;3578;51.568;6.932;2022-10-18T06:03:45;54085.88;;;-144.14;100.00
7075;BME280;3578;51.568;6.932;2022-10-18T06:06:13;54077.88;;;-144.14;100.00
7075;BME280;3578;51.568;6.932;2022-10-18T06:08:41;54063.84;;;-144.14;100.00
7075;BME280;3578;51.568;6.932;2022-10-18T06:11:13;54105.94;;;-144.14;100.00
7075;BME280;3578;51.568;6.932;2022-10-18T06:13:41;54081.88;;;-144.14;100.00
7075;BME280;3578;51.568;6.932;2022-10-18T06:16:11;54071.84;;;-144.14;100.00
7075;BME280;3578;51.568;6.932;2022-10-18T06:18:40;54091.91;;;-144.14;100.00
7075;BME280;3578;51.568;6.932;2022-10-18T06:21:07;54111.94;;;-144.14;100.00
7075;BME280;3578;51.568;6.932;2022-10-18T06:23:35;54067.84;;;-144.14;100.00
7075;BME280;3578;51.568;6.932;2022-10-18T06:26:04;54091.91;;;-144.14;100.00
7075;BME280;3578;51.568;6.932;2022-10-18T06:28:34;54107.94;;;-144.14;100.00
7075;BME280;3578;51.568;6.932;2022-10-18T06:31:02;54051.81;;;-144.14;100.00
7075;BME280;3578;51.568;6.932;2022-10-18T06:33:32;54007.69;;;-144.14;100.00
7075;BME280;3578;51.568;6.932;2022-10-18T06:36:01;54113.94;;;-144.14;100.00
7075;BME280;3578;51.568;6.932;2022-10-18T06:38:29;54083.88;;;-144.14;100.00
7075;BME280;3578;51.568;6.932;2022-10-18T06:40:57;54039.78;;;-144.14;100.00
7075;BME280;3578;51.568;6.932;2022-10-18T06:43:24;54083.88;;;-144.14;100.00
7075;BME280;3578;51.568;6.932;2022-10-18T06:45:52;54085.88;;;-144.14;100.00
7075;BME280;3578;51.568;6.932;2022-10-18T06:48:20;54071.84;;;-144.14;100.00
7075;BME280;3578;51.568;6.932;2022-10-18T06:50:53;54111.94;;;-144.14;100.00
7075;BME280;3578;51.568;6.932;2022-10-18T06:53:21;54079.88;;;-144.14;100.00
7075;BME280;3578;51.568;6.932;2022-10-18T06:55:48;54115.94;;;-144.14;100.00
7075;BME280;3578;51.568;6.932;2022-10-18T06:58:15;54093.91;;;-144.14;100.00
7075;BME280;3578;51.568;6.932;2022-10-18T07:00:42;54089.88;;;-144.14;100.00
7075;BME280;3578;51.568;6.932;2022-10-18T07:03:10;54095.91;;;-144.14;100.00
7075;BME280;3578;51.568;6.932;2022-10-18T07:05:37;54125.97;;;-144.14;100.00
7075;BME280;3578;51.568;6.932;2022-10-18T07:08:05;54091.91;;;-144.14;100.00
7075;BME280;3578;51.568;6.932;2022-10-18T07:10:32;54113.94;;;-144.14;100.00
7075;BME280;3578;51.568;6.932;2022-10-18T07:12:59;54109.94;;;-144.14;100.00
7075;BME280;3578;51.568;6.932;2022-10-18T07:15:26;54150.03;;;-144.14;100.00
7075;BME280;3578;51.568;6.932;2022-10-18T07:17:53;54127.97;;;-144.14;100.00
7075;BME280;3578;51.568;6.932;2022-10-18T07:20:21;54121.97;;;-144.14;100.00
7075;BME280;3578;51.568;6.932;2022-10-18T07:22:48;54136.00;;;-144.14;100.00
7075;BME280;3578;51.568;6.932;2022-10-18T07:25:17;54166.06;;;-144.14;100.00
7075;BME280;3578;51.568;6.932;2022-10-18T07:27:44;54174.09;;;-144.14;100.00
7075;BME280;3578;51.568;6.932;2022-10-18T07:30:11;54210.16;;;-144.14;100.00
7075;BME280;3578;51.568;6.932;2022-10-18T07:32:38;54196.13;;;-144.14;100.00
7075;BME280;3578;51.568;6.932;2022-10-18T07:35:05;54184.09;;;-144.14;100.00
7075;BME280;3578;51.568;6.932;2022-10-18T07:37:32;54230.22;;;-144.14;100.00
7075;BME280;3578;51.568;6.932;2022-10-18T07:39:59;54196.13;;;-144.14;100.00
7075;BME280;3578;51.568;6.932;2022-10-18T07:42:28;54218.19;;;-144.14;100.00
7075;BME280;3578;51.568;6.932;2022-10-18T07:44:54;54212.19;;;-144.14;100.00
7075;BME280;3578;51.568;6.932;2022-10-18T07:47:21;54216.19;;;-144.14;100.00
7075;BME280;3578;51.568;6.932;2022-10-18T07:49:48;54248.25;;;-144.14;100.00
7075;BME280;3578;51.568;6.932;2022-10-18T07:52:15;54202.16;;;-144.14;100.00
7075;BME280;3578;51.568;6.932;2022-10-18T07:54:42;54226.22;;;-144.14;100.00
7075;BME280;3578;51.568;6.932;2022-10-18T07:57:09;54262.28;;;-144.14;100.00
7075;BME280;3578;51.568;6.932;2022-10-18T07:59:37;54244.25;;;-144.14;100.00
7075;BME280;3578;51.568;6.932;2022-10-18T08:02:04;54272.31;;;-144.14;100.00
7075;BME280;3578;51.568;6.932;2022-10-18T08:04:31;54272.31;;;-144.14;100.00
7075;BME280;3578;51.568;6.932;2022-10-18T08:06:58;54256.28;;;-144.14;100.00
7075;BME280;3578;51.568;6.932;2022-10-18T08:09:25;54252.25;;;-144.14;100.00
7075;BME280;3578;51.568;6.932;2022-10-18T08:11:52;54274.31;;;-144.14;100.00
7075;BME280;3578;51.568;6.932;2022-10-18T08:14:19;54260.28;;;-144.14;100.00
7075;BME280;3578;51.568;6.932;2022-10-18T08:16:48;54274.31;;;-144.14;100.00
7075;BME280;3578;51.568;6.932;2022-10-18T08:19:15;54232.22;;;-144.14;100.00
7075;BME280;3578;51.568;6.932;2022-10-18T08:21:41;54240.25;;;-144.14;100.00
7075;BME280;3578;51.568;6.932;2022-10-18T08:24:08;54264.28;;;-144.14;100.00
7075;BME280;3578;51.568;6.932;2022-10-18T08:26:36;54228.22;;;-144.14;100.00
7075;BME280;3578;51.568;6.932;2022-10-18T08:29:03;54252.25;;;-144.14;100.00
7075;BME280;3578;51.568;6.932;2022-10-18T08:31:30;54270.31;;;-144.14;100.00
7075;BME280;3578;51.568;6.932;2022-10-18T08:33:58;54286.34;;;-144.14;100.00
7075;BME280;3578;51.568;6.932;2022-10-18T08:36:25;54292.38;;;-144.14;100.00
7075;BME280;3578;51.568;6.932;2022-10-18T08:38:52;54320.44;;;-144.14;100.00
7075;BME280;3578;51.568;6.932;2022-10-18T08:42:11;54354.50;;;-144.14;100.00
7075;BME280;3578;51.568;6.932;2022-10-18T08:44:44;54328.44;;;-144.14;100.00
7075;BME280;3578;51.568;6.932;2022-10-18T08:47:14;54314.41;;;-144.14;100.00
7075;BME280;3578;51.568;6.932;2022-10-18T08:49:47;54368.53;;;-144.14;100.00
7075;BME280;3578;51.568;6.932;2022-10-18T08:52:25;54330.44;;;-144.14;100.00
7075;BME280;3578;51.568;6.932;2022-10-18T08:54:59;54400.63;;;-144.14;100.00
7075;BME280;3578;51.568;6.932;2022-10-18T08:57:28;54416.66;;;-144.14;100.00
7075;BME280;3578;51.568;6.932;2022-10-18T08:59:56;54418.66;;;-144.14;100.00
7075;BME280;3578;51.568;6.932;2022-10-18T09:02:35;54426.69;;;-144.14;100.00
7075;BME280;3578;51.568;6.932;2022-10-18T09:05:18;54420.66;;;-144.14;100.00
7075;BME280;3578;51.568;6.932;2022-10-18T09:08:17;54402.63;;;-144.14;100.00
7075;BME280;3578;51.568;6.932;2022-10-18T09:10:59;54376.56;;;-144.14;100.00
7075;BME280;3578;51.568;6.932;2022-10-18T09:13:57;54412.66;;;-144.14;100.00
7075;BME280;3578;51.568;6.932;2022-10-18T09:16:36;54442.72;;;-144.14;100.00
7075;BME280;3578;51.568;6.932;2022-10-18T09:19:12;54424.69;;;-144.14;100.00
7075;BME280;3578;51.568;6.932;2022-10-18T09:21:50;54460.75;;;-144.14;100.00
7075;BME280;3578;51.568;6.932;2022-10-18T09:24:25;54434.69;;;-144.14;100.00
7075;BME280;3578;51.568;6.932;2022-10-18T09:27:00;54462.75;;;-144.14;100.00
7075;BME280;3578;51.568;6.932;2022-10-18T09:29:50;54440.72;;;-144.14;100.00
7075;BME280;3578;51.568;6.932;2022-10-18T09:32:31;54454.75;;;-144.14;100.00
7075;BME280;3578;51.568;6.932;2022-10-18T09:35:13;54532.94;;;-144.14;100.00
7075;BME280;3578;51.568;6.932;2022-10-18T09:37:44;54524.91;;;-144.14;100.00
7075;BME280;3578;51.568;6.932;2022-10-18T09:40:16;54504.88;;;-144.14;100.00
7075;BME280;3578;51.568;6.932;2022-10-18T09:42:54;54494.84;;;-144.14;100.00
7075;BME280;3578;51.568;6.932;2022-10-18T09:45:26;54542.97;;;-144.14;100.00
7075;BME280;3578;51.568;6.932;2022-10-18T09:48:04;54526.91;;;-144.14;100.00
7075;BME280;3578;51.568;6.932;2022-10-18T09:50:39;54555.00;;;-144.14;100.00
7075;BME280;3578;51.568;6.932;2022-10-18T09:53:18;54581.06;;;-144.14;100.00
7075;BME280;3578;51.568;6.932;2022-10-18T09:55:59;54625.16;;;-144.14;99.97
7075;BME280;3578;51.568;6.932;2022-10-18T09:58:38;54621.16;;;-144.14;100.00
7075;BME280;3578;51.568;6.932;2022-10-18T10:01:07;54649.22;;;-144.14;100.00
7075;BME280;3578;51.568;6.932;2022-10-18T10:03:35;54679.28;;;-144.14;99.71
7075;BME280;3578;51.568;6.932;2022-10-18T10:06:23;54739.44;;;-144.14;98.65
7075;BME280;3578;51.568;6.932;2022-10-18T10:08:59;54771.53;;;-144.14;98.53
7075;BME280;3578;51.568;6.932;2022-10-18T10:11:31;54745.47;;;-144.14;97.50
7075;BME280;3578;51.568;6.932;2022-10-18T10:14:08;54817.63;;;-144.14;97.19
7075;BME280;3578;51.568;6.932;2022-10-18T10:16:46;54863.75;;;-144.14;97.29
7075;BME280;3578;51.568;6.932;2022-10-18T10:19:17;54843.69;;;-144.14;96.47
7075;BME280;3578;51.568;6.932;2022-10-18T10:21:46;54966.00;;;-144.14;94.46
7075;BME280;3578;51.568;6.932;2022-10-18T10:24:39;54992.06;;;-144.14;93.85
7075;BME280;3578;51.568;6.932;2022-10-18T10:27:17;55002.09;;;-144.14;92.61
7075;BME280;3578;51.568;6.932;2022-10-18T10:29:55;55028.16;;;-144.14;92.04
7075;BME280;3578;51.568;6.932;2022-10-18T10:32:29;55064.25;;;-144.14;91.61
7075;BME280;3578;51.568;6.932;2022-10-18T10:34:57;55086.31;;;-144.14;91.73
7075;BME280;3578;51.568;6.932;2022-10-18T10:37:31;55050.22;;;-144.14;92.12
7075;BME280;3578;51.568;6.932;2022-10-18T10:40:20;55066.25;;;-144.14;91.46
7075;BME280;3578;51.568;6.932;2022-10-18T10:43:05;55122.41;;;-144.14;91.73
7075;BME280;3578;51.568;6.932;2022-10-18T10:45:55;55114.38;;;-144.14;91.15
7075;BME280;3578;51.568;6.932;2022-10-18T10:48:23;55132.44;;;-144.14;90.06
7075;BME280;3578;51.568;6.932;2022-10-18T10:50:56;55148.47;;;-144.14;89.54
7075;BME280;3578;51.568;6.932;2022-10-18T10:53:37;55172.53;;;-144.14;88.69
7075;BME280;3578;51.568;6.932;2022-10-18T10:56:16;55254.75;;;-144.14;88.07
7075;BME280;3578;51.568;6.932;2022-10-18T10:58:44;55270.81;;;-144.14;87.84
7075;BME280;3578;51.568;6.932;2022-10-18T11:01:28;55262.78;;;-144.14;85.93
7075;BME280;3578;51.568;6.932;2022-10-18T11:03:59;55244.72;;;-144.14;85.35
7075;BME280;3578;51.568;6.932;2022-10-18T11:06:39;55310.91;;;-144.14;86.20
7075;BME280;3578;51.568;6.932;2022-10-18T11:09:29;55286.84;;;-144.14;87.07
7075;BME280;3578;51.568;6.932;2022-10-18T11:12:09;55284.84;;;-144.14;86.09
7075;BME280;3578;51.568;6.932;2022-10-18T11:14:44;55304.88;;;-144.14;85.75
7075;BME280;3578;51.568;6.932;2022-10-18T11:17:22;55306.91;;;-144.14;85.90
7075;BME280;3578;51.568;6.932;2022-10-18T11:20:09;55330.97;;;-144.14;86.66
7075;BME280;3578;51.568;6.932;2022-10-18T11:22:41;55324.94;;;-144.14;85.81
7075;BME280;3578;51.568;6.932;2022-10-18T11:25:14;55359.03;;;-144.14;85.53
7075;BME280;3578;51.568;6.932;2022-10-18T11:27:47;55298.88;;;-144.14;85.54
7075;BME280;3578;51.568;6.932;2022-10-18T11:30:40;55246.75;;;-144.14;85.41
7075;BME280;3578;51.568;6.932;2022-10-18T11:33:21;55272.81;;;-144.14;86.65
7075;BME280;3578;51.568;6.932;2022-10-18T11:35:55;55206.63;;;-144.14;87.28
7075;BME280;3578;51.568;6.932;2022-10-18T11:38:32;55214.66;;;-144.14;86.16
7075;BME280;3578;51.568;6.932;2022-10-18T11:41:18;55198.59;;;-144.14;84.96
7075;BME280;3578;51.568;6.932;2022-10-18T11:43:53;55276.81;;;-144.14;83.66
7075;BME280;3578;51.568;6.932;2022-10-18T11:46:32;55270.81;;;-144.14;84.43
7075;BME280;3578;51.568;6.932;2022-10-18T11:49:22;55274.81;;;-144.14;84.79
7075;BME280;3578;51.568;6.932;2022-10-18T11:52:03;55280.81;;;-144.14;85.16
7075;BME280;3578;51.568;6.932;2022-10-18T11:57:45;55290.84;;;-144.14;85.82
7075;BME280;3578;51.568;6.932;2022-10-18T12:00:43;55326.94;;;-144.14;84.70
7075;BME280;3578;51.568;6.932;2022-10-18T12:03:22;55347.00;;;-144.14;84.42
7075;BME280;3578;51.568;6.932;2022-10-18T12:05:53;55399.13;;;-144.14;84.44
7075;BME280;3578;51.568;6.932;2022-10-18T12:08:26;55399.13;;;-144.14;84.46
7075;BME280;3578;51.568;6.932;2022-10-18T12:10:57;55457.28;;;-144.14;84.30
7075;BME280;3578;51.568;6.932;2022-10-18T12:13:31;55437.25;;;-144.14;84.72
7075;BME280;3578;51.568;6.932;2022-10-18T12:16:02;55467.31;;;-144.14;82.81
7075;BME280;3578;51.568;6.932;2022-10-18T12:18:31;55389.13;;;-144.14;83.04
7075;BME280;3578;51.568;6.932;2022-10-18T12:21:00;55395.13;;;-144.14;82.84
7075;BME280;3578;51.568;6.932;2022-10-18T12:23:37;55485.38;;;-144.14;82.09
7075;BME280;3578;51.568;6.932;2022-10-18T12:26:06;55469.34;;;-144.14;82.24
7075;BME280;3578;51.568;6.932;2022-10-18T12:28:46;55447.28;;;-144.14;83.56
7075;BME280;3578;51.568;6.932;2022-10-18T12:31:23;55489.38;;;-144.14;83.80
7075;BME280;3578;51.568;6.932;2022-10-18T12:33:55;55497.41;;;-144.14;83.96
7075;BME280;3578;51.568;6.932;2022-10-18T12:36:44;55427.22;;;-144.14;81.90
7075;BME280;3578;51.568;6.932;2022-10-18T12:39:18;55343.00;;;-144.14;81.86
7075;BME280;3578;51.568;6.932;2022-10-18T12:41:48;55351.00;;;-144.14;82.38
7075;BME280;3578;51.568;6.932;2022-10-18T12:44:23;55318.94;;;-144.14;83.09
7075;BME280;3578;51.568;6.932;2022-10-18T12:46:55;55302.88;;;-144.14;84.07
7075;BME280;3578;51.568;6.932;2022-10-18T12:49:28;55314.91;;;-144.14;83.93
7075;BME280;3578;51.568;6.932;2022-10-18T12:51:57;55379.09;;;-144.14;83.03
7075;BME280;3578;51.568;6.932;2022-10-18T12:54:27;55359.03;;;-144.14;82.76
7075;BME280;3578;51.568;6.932;2022-10-18T12:56:56;55391.13;;;-144.14;82.45
7075;BME280;3578;51.568;6.932;2022-10-18T12:59:50;55347.00;;;-144.14;83.08
7075;BME280;3578;51.568;6.932;2022-10-18T13:02:31;55389.13;;;-144.14;82.89
7075;BME280;3578;51.568;6.932;2022-10-18T13:04:59;55387.09;;;-144.14;83.32
7075;BME280;3578;51.568;6.932;2022-10-18T13:07:39;55355.03;;;-144.14;81.56
7075;BME280;3578;51.568;6.932;2022-10-18T13:10:38;55435.25;;;-144.14;81.64
7075;BME280;3578;51.568;6.932;2022-10-18T13:16:35;55403.16;;;-144.14;82.69
7075;BME280;3578;51.568;6.932;2022-10-18T13:19:26;55415.19;;;-144.14;81.27
7075;BME280;3578;51.568;6.932;2022-10-18T13:22:16;55355.03;;;-144.14;79.89
7075;BME280;3578;51.568;6.932;2022-10-18T13:24:57;55489.38;;;-144.14;79.56